sensor_id;sensor_type;location;lat;lon;timestamp;temperature;humidity
63897;DHT22;50063;52.084;5.414;2022-09-21T00:01:05;12.20;99.90
63897;DHT22;50063;52.084;5.414;2022-09-21T00:03:32;12.20;99.90
63897;DHT22;50063;52.084;5.414;2022-09-21T00:06:05;12.10;99.90
63897;DHT22;50063;52.084;5.414;2022-09-21T00:08:32;12.00;99.90
63897;DHT22;50063;52.084;5.414;2022-09-21T00:10:59;12.00;99.90
63897;DHT22;50063;52.084;5.414;2022-09-21T00:13:26;11.90;99.90
63897;DHT22;50063;52.084;5.414;2022-09-21T00:15:54;11.80;99.90
63897;DHT22;50063;52.084;5.414;2022-09-21T00:18:21;11.80;99.90
63897;DHT22;50063;52.084;5.414;2022-09-21T00:20:48;11.70;99.90
63897;DHT22;50063;52.084;5.414;2022-09-21T00:23:14;11.60;99.90
63897;DHT22;50063;52.084;5.414;2022-09-21T00:25:41;11.60;99.90
63897;DHT22;50063;52.084;5.414;2022-09-21T00:28:08;11.60;99.90
63897;DHT22;50063;52.084;5.414;2022-09-21T00:30:34;11.60;99.90
63897;DHT22;50063;52.084;5.414;2022-09-21T00:33:02;11.50;99.90
63897;DHT22;50063;52.084;5.414;2022-09-21T00:35:29;11.40;99.90
63897;DHT22;50063;52.084;5.414;2022-09-21T00:37:59;11.40;99.90
63897;DHT22;50063;52.084;5.414;2022-09-21T00:40:25;11.40;99.90
63897;DHT22;50063;52.084;5.414;2022-09-21T00:42:52;11.40;99.90
63897;DHT22;50063;52.084;5.414;2022-09-21T00:45:19;11.30;99.90
63897;DHT22;50063;52.084;5.414;2022-09-21T00:47:49;11.20;99.90
63897;DHT22;50063;52.084;5.414;2022-09-21T00:50:18;11.20;99.90
63897;DHT22;50063;52.084;5.414;2022-09-21T00:52:46;11.10;99.90
63897;DHT22;50063;52.084;5.414;2022-09-21T00:57:41;11.10;99.90
63897;DHT22;50063;52.084;5.414;2022-09-21T01:00:08;11.00;99.90
63897;DHT22;50063;52.084;5.414;2022-09-21T01:02:35;10.90;99.90
63897;DHT22;50063;52.084;5.414;2022-09-21T01:05:06;10.80;99.90
63897;DHT22;50063;52.084;5.414;2022-09-21T01:07:34;10.80;99.90
63897;DHT22;50063;52.084;5.414;2022-09-21T01:10:06;10.70;99.90
63897;DHT22;50063;52.084;5.414;2022-09-21T01:25:29;10.30;99.90
63897;DHT22;50063;52.084;5.414;2022-09-21T01:30:37;10.40;99.90
63897;DHT22;50063;52.084;5.414;2022-09-21T01:33:09;10.30;99.90
63897;DHT22;50063;52.084;5.414;2022-09-21T01:35:40;10.20;99.90
63897;DHT22;50063;52.084;5.414;2022-09-21T01:38:09;10.30;99.90
63897;DHT22;50063;52.084;5.414;2022-09-21T01:40:39;10.30;99.90
63897;DHT22;50063;52.084;5.414;2022-09-21T01:43:08;10.30;99.90
63897;DHT22;50063;52.084;5.414;2022-09-21T01:45:37;10.30;99.90
63897;DHT22;50063;52.084;5.414;2022-09-21T01:48:06;10.20;99.90
63897;DHT22;50063;52.084;5.414;2022-09-21T01:50:35;10.20;99.90
63897;DHT22;50063;52.084;5.414;2022-09-21T01:53:07;10.20;99.90
63897;DHT22;50063;52.084;5.414;2022-09-21T01:55:36;10.10;99.90
63897;DHT22;50063;52.084;5.414;2022-09-21T01:58:10;10.20;99.90
63897;DHT22;50063;52.084;5.414;2022-09-21T02:00:37;10.10;99.90
63897;DHT22;50063;52.084;5.414;2022-09-21T02:03:11;10.10;99.90
63897;DHT22;50063;52.084;5.414;2022-09-21T02:05:38;10.10;99.90
63897;DHT22;50063;52.084;5.414;2022-09-21T02:08:05;10.00;99.90
63897;DHT22;50063;52.084;5.414;2022-09-21T02:10:34;10.00;99.90
63897;DHT22;50063;52.084;5.414;2022-09-21T02:13:03;10.00;99.90
63897;DHT22;50063;52.084;5.414;2022-09-21T02:32:06;9.80;99.90
63897;DHT22;50063;52.084;5.414;2022-09-21T02:34:41;9.80;99.90
63897;DHT22;50063;52.084;5.414;2022-09-21T02:37:16;9.70;99.90
63897;DHT22;50063;52.084;5.414;2022-09-21T02:39:47;9.70;99.90
63897;DHT22;50063;52.084;5.414;2022-09-21T02:42:16;9.60;99.90
63897;DHT22;50063;52.084;5.414;2022-09-21T02:44:46;9.60;99.90
63897;DHT22;50063;52.084;5.414;2022-09-21T02:47:17;9.50;99.90
63897;DHT22;50063;52.084;5.414;2022-09-21T02:49:48;9.50;99.90
63897;DHT22;50063;52.084;5.414;2022-09-21T02:52:17;9.50;99.90
63897;DHT22;50063;52.084;5.414;2022-09-21T02:54:46;9.50;99.90
63897;DHT22;50063;52.084;5.414;2022-09-21T02:57:14;9.50;99.90
63897;DHT22;50063;52.084;5.414;2022-09-21T02:59:42;9.40;99.90
63897;DHT22;50063;52.084;5.414;2022-09-21T03:02:09;9.40;99.90
63897;DHT22;50063;52.084;5.414;2022-09-21T03:04:38;9.50;99.90
63897;DHT22;50063;52.084;5.414;2022-09-21T03:07:07;9.40;99.90
63897;DHT22;50063;52.084;5.414;2022-09-21T03:09:33;9.40;99.90
63897;DHT22;50063;52.084;5.414;2022-09-21T03:12:00;9.40;99.90
63897;DHT22;50063;52.084;5.414;2022-09-21T03:14:27;9.30;99.90
63897;DHT22;50063;52.084;5.414;2022-09-21T03:16:53;9.20;99.90
63897;DHT22;50063;52.084;5.414;2022-09-21T03:19:20;9.20;99.90
63897;DHT22;50063;52.084;5.414;2022-09-21T03:21:46;9.20;99.90
63897;DHT22;50063;52.084;5.414;2022-09-21T03:24:13;9.20;99.90
63897;DHT22;50063;52.084;5.414;2022-09-21T03:26:59;9.20;99.90
63897;DHT22;50063;52.084;5.414;2022-09-21T03:29:26;9.00;99.90
63897;DHT22;50063;52.084;5.414;2022-09-21T03:31:52;9.00;99.90
63897;DHT22;50063;52.084;5.414;2022-09-21T03:34:21;9.00;99.90
63897;DHT22;50063;52.084;5.414;2022-09-21T03:36:48;9.00;99.90
63897;DHT22;50063;52.084;5.414;2022-09-21T03:39:14;9.10;99.90
63897;DHT22;50063;52.084;5.414;2022-09-21T03:41:41;9.10;99.90
63897;DHT22;50063;52.084;5.414;2022-09-21T03:44:07;9.00;99.90
63897;DHT22;50063;52.084;5.414;2022-09-21T03:46:34;9.00;99.90
63897;DHT22;50063;52.084;5.414;2022-09-21T03:49:00;9.10;99.90
63897;DHT22;50063;52.084;5.414;2022-09-21T03:51:28;9.10;99.90
63897;DHT22;50063;52.084;5.414;2022-09-21T03:53:57;9.10;99.90
63897;DHT22;50063;52.084;5.414;2022-09-21T03:56:24;9.10;99.90
63897;DHT22;50063;52.084;5.414;2022-09-21T03:58:50;9.10;99.90
63897;DHT22;50063;52.084;5.414;2022-09-21T04:01:17;9.20;99.90
63897;DHT22;50063;52.084;5.414;2022-09-21T04:03:44;9.20;99.90
63897;DHT22;50063;52.084;5.414;2022-09-21T04:06:10;9.20;99.90
63897;DHT22;50063;52.084;5.414;2022-09-21T04:08:37;9.10;99.90
63897;DHT22;50063;52.084;5.414;2022-09-21T04:11:11;9.10;99.90
63897;DHT22;50063;52.084;5.414;2022-09-21T04:13:38;9.00;99.90
63897;DHT22;50063;52.084;5.414;2022-09-21T04:16:04;9.00;99.90
63897;DHT22;50063;52.084;5.414;2022-09-21T04:18:31;9.00;99.90
63897;DHT22;50063;52.084;5.414;2022-09-21T04:20:58;9.00;99.90
63897;DHT22;50063;52.084;5.414;2022-09-21T04:23:24;9.00;99.90
63897;DHT22;50063;52.084;5.414;2022-09-21T04:25:52;8.90;99.90
63897;DHT22;50063;52.084;5.414;2022-09-21T04:28:19;8.90;99.90
63897;DHT22;50063;52.084;5.414;2022-09-21T04:30:45;8.90;99.90
63897;DHT22;50063;52.084;5.414;2022-09-21T04:33:12;8.90;99.90
63897;DHT22;50063;52.084;5.414;2022-09-21T04:35:39;8.90;99.90
63897;DHT22;50063;52.084;5.414;2022-09-21T04:38:06;8.90;99.90
63897;DHT22;50063;52.084;5.414;2022-09-21T04:40:33;8.80;99.90
63897;DHT22;50063;52.084;5.414;2022-09-21T04:42:59;8.80;99.90
63897;DHT22;50063;52.084;5.414;2022-09-21T04:45:26;8.60;99.90
63897;DHT22;50063;52.084;5.414;2022-09-21T04:47:52;8.70;99.90
63897;DHT22;50063;52.084;5.414;2022-09-21T04:50:19;8.70;99.90
63897;DHT22;50063;52.084;5.414;2022-09-21T04:52:45;8.60;99.90
63897;DHT22;50063;52.084;5.414;2022-09-21T04:55:13;8.60;99.90
63897;DHT22;50063;52.084;5.414;2022-09-21T04:57:39;8.60;99.90
63897;DHT22;50063;52.084;5.414;2022-09-21T05:00:06;8.60;99.90
63897;DHT22;50063;52.084;5.414;2022-09-21T05:02:32;8.60;99.90
63897;DHT22;50063;52.084;5.414;2022-09-21T05:04:59;8.60;99.90
63897;DHT22;50063;52.084;5.414;2022-09-21T05:07:25;8.50;99.90
63897;DHT22;50063;52.084;5.414;2022-09-21T05:09:52;8.40;99.90
63897;DHT22;50063;52.084;5.414;2022-09-21T05:12:28;8.40;99.90
63897;DHT22;50063;52.084;5.414;2022-09-21T05:14:55;8.50;99.90
63897;DHT22;50063;52.084;5.414;2022-09-21T05:17:21;8.40;99.90
63897;DHT22;50063;52.084;5.414;2022-09-21T05:19:49;8.40;99.90
63897;DHT22;50063;52.084;5.414;2022-09-21T05:22:15;8.40;99.90
63897;DHT22;50063;52.084;5.414;2022-09-21T05:24:42;8.30;99.90
63897;DHT22;50063;52.084;5.414;2022-09-21T05:27:09;8.30;99.90
63897;DHT22;50063;52.084;5.414;2022-09-21T05:29:35;8.30;99.90
63897;DHT22;50063;52.084;5.414;2022-09-21T05:32:07;8.30;99.90
63897;DHT22;50063;52.084;5.414;2022-09-21T05:34:43;8.20;99.90
63897;DHT22;50063;52.084;5.414;2022-09-21T05:37:12;8.20;99.90
63897;DHT22;50063;52.084;5.414;2022-09-21T05:39:45;8.30;99.90
63897;DHT22;50063;52.084;5.414;2022-09-21T05:42:12;8.20;99.90
63897;DHT22;50063;52.084;5.414;2022-09-21T05:44:38;8.20;99.90
63897;DHT22;50063;52.084;5.414;2022-09-21T05:52:33;8.30;99.90
63897;DHT22;50063;52.084;5.414;2022-09-21T06:05:21;8.30;99.90
63897;DHT22;50063;52.084;5.414;2022-09-21T06:07:47;8.30;99.90
63897;DHT22;50063;52.084;5.414;2022-09-21T06:10:14;8.40;99.90
63897;DHT22;50063;52.084;5.414;2022-09-21T06:12:41;8.40;99.90
63897;DHT22;50063;52.084;5.414;2022-09-21T06:15:09;8.40;99.90
63897;DHT22;50063;52.084;5.414;2022-09-21T06:17:37;8.40;99.90
63897;DHT22;50063;52.084;5.414;2022-09-21T06:20:03;8.40;99.90
63897;DHT22;50063;52.084;5.414;2022-09-21T06:22:32;8.50;99.90
63897;DHT22;50063;52.084;5.414;2022-09-21T06:24:59;8.40;99.90
63897;DHT22;50063;52.084;5.414;2022-09-21T06:27:26;8.40;99.90
63897;DHT22;50063;52.084;5.414;2022-09-21T06:29:53;8.40;99.90
63897;DHT22;50063;52.084;5.414;2022-09-21T06:32:20;8.40;99.90
63897;DHT22;50063;52.084;5.414;2022-09-21T06:34:46;8.40;99.90
63897;DHT22;50063;52.084;5.414;2022-09-21T06:37:13;8.40;99.90
63897;DHT22;50063;52.084;5.414;2022-09-21T06:39:39;8.50;99.90
63897;DHT22;50063;52.084;5.414;2022-09-21T06:42:06;8.50;99.90
63897;DHT22;50063;52.084;5.414;2022-09-21T06:44:32;8.60;99.90
63897;DHT22;50063;52.084;5.414;2022-09-21T06:46:59;8.60;99.90
63897;DHT22;50063;52.084;5.414;2022-09-21T06:49:25;8.60;99.90
63897;DHT22;50063;52.084;5.414;2022-09-21T06:51:54;8.60;99.90
63897;DHT22;50063;52.084;5.414;2022-09-21T06:54:21;8.70;99.90
63897;DHT22;50063;52.084;5.414;2022-09-21T06:56:47;8.80;99.90
63897;DHT22;50063;52.084;5.414;2022-09-21T06:59:14;8.80;99.90
63897;DHT22;50063;52.084;5.414;2022-09-21T07:01:40;8.90;99.90
63897;DHT22;50063;52.084;5.414;2022-09-21T07:04:07;8.90;99.90
63897;DHT22;50063;52.084;5.414;2022-09-21T07:06:34;9.00;99.90
63897;DHT22;50063;52.084;5.414;2022-09-21T07:09:01;9.00;99.90
63897;DHT22;50063;52.084;5.414;2022-09-21T07:11:50;9.10;99.90
63897;DHT22;50063;52.084;5.414;2022-09-21T07:14:17;9.20;99.90
63897;DHT22;50063;52.084;5.414;2022-09-21T07:16:43;9.20;99.90
63897;DHT22;50063;52.084;5.414;2022-09-21T07:19:10;9.30;99.90
63897;DHT22;50063;52.084;5.414;2022-09-21T07:21:37;9.30;99.90
63897;DHT22;50063;52.084;5.414;2022-09-21T07:24:04;9.40;99.90
63897;DHT22;50063;52.084;5.414;2022-09-21T07:26:36;9.50;99.90
63897;DHT22;50063;52.084;5.414;2022-09-21T07:29:03;9.60;99.90
63897;DHT22;50063;52.084;5.414;2022-09-21T07:31:29;9.60;99.90
63897;DHT22;50063;52.084;5.414;2022-09-21T07:33:56;9.70;99.90
63897;DHT22;50063;52.084;5.414;2022-09-21T07:36:24;9.80;99.90
63897;DHT22;50063;52.084;5.414;2022-09-21T07:38:51;9.90;99.90
63897;DHT22;50063;52.084;5.414;2022-09-21T07:41:19;9.90;99.90
63897;DHT22;50063;52.084;5.414;2022-09-21T07:43:45;10.10;99.90
63897;DHT22;50063;52.084;5.414;2022-09-21T07:46:13;10.20;99.90
63897;DHT22;50063;52.084;5.414;2022-09-21T07:48:40;10.30;99.90
63897;DHT22;50063;52.084;5.414;2022-09-21T07:51:07;10.40;99.90
63897;DHT22;50063;52.084;5.414;2022-09-21T07:53:35;10.40;99.90
63897;DHT22;50063;52.084;5.414;2022-09-21T07:56:07;10.50;99.90
63897;DHT22;50063;52.084;5.414;2022-09-21T07:58:34;10.60;99.90
63897;DHT22;50063;52.084;5.414;2022-09-21T08:01:19;10.80;99.90
63897;DHT22;50063;52.084;5.414;2022-09-21T08:03:52;11.00;99.90
63897;DHT22;50063;52.084;5.414;2022-09-21T08:06:19;11.10;99.90
63897;DHT22;50063;52.084;5.414;2022-09-21T08:08:46;11.20;99.90
63897;DHT22;50063;52.084;5.414;2022-09-21T08:11:14;11.20;99.90
63897;DHT22;50063;52.084;5.414;2022-09-21T08:13:41;11.30;99.90
63897;DHT22;50063;52.084;5.414;2022-09-21T08:16:07;11.50;99.90
63897;DHT22;50063;52.084;5.414;2022-09-21T08:18:37;11.50;99.90
63897;DHT22;50063;52.084;5.414;2022-09-21T08:21:05;11.70;99.90
63897;DHT22;50063;52.084;5.414;2022-09-21T08:23:32;11.80;99.90
63897;DHT22;50063;52.084;5.414;2022-09-21T08:25:59;11.90;99.90
63897;DHT22;50063;52.084;5.414;2022-09-21T08:28:27;12.10;99.90
63897;DHT22;50063;52.084;5.414;2022-09-21T08:30:57;12.20;99.90
63897;DHT22;50063;52.084;5.414;2022-09-21T08:33:24;12.20;99.90
63897;DHT22;50063;52.084;5.414;2022-09-21T08:35:56;12.20;99.90
63897;DHT22;50063;52.084;5.414;2022-09-21T08:38:23;12.30;99.90
63897;DHT22;50063;52.084;5.414;2022-09-21T08:40:50;12.40;99.90
63897;DHT22;50063;52.084;5.414;2022-09-21T08:43:20;12.50;99.90
63897;DHT22;50063;52.084;5.414;2022-09-21T08:45:48;12.60;99.90
63897;DHT22;50063;52.084;5.414;2022-09-21T08:48:17;12.70;99.90
63897;DHT22;50063;52.084;5.414;2022-09-21T08:50:51;12.70;99.90
63897;DHT22;50063;52.084;5.414;2022-09-21T08:53:24;12.80;99.90
63897;DHT22;50063;52.084;5.414;2022-09-21T08:55:54;12.90;99.90
63897;DHT22;50063;52.084;5.414;2022-09-21T08:58:25;13.00;99.90
63897;DHT22;50063;52.084;5.414;2022-09-21T09:16:19;13.70;99.90
63897;DHT22;50063;52.084;5.414;2022-09-21T09:18:53;13.90;99.90
63897;DHT22;50063;52.084;5.414;2022-09-21T09:21:36;13.90;99.90
63897;DHT22;50063;52.084;5.414;2022-09-21T09:26:51;14.20;99.90
63897;DHT22;50063;52.084;5.414;2022-09-21T09:32:04;14.40;99.90
63897;DHT22;50063;52.084;5.414;2022-09-21T09:34:37;14.50;99.90
63897;DHT22;50063;52.084;5.414;2022-09-21T09:37:12;14.60;99.90
63897;DHT22;50063;52.084;5.414;2022-09-21T09:39:39;14.70;99.90
63897;DHT22;50063;52.084;5.414;2022-09-21T09:52:24;15.20;99.90
63897;DHT22;50063;52.084;5.414;2022-09-21T09:54:51;15.20;99.90
63897;DHT22;50063;52.084;5.414;2022-09-21T09:57:23;15.40;99.90
63897;DHT22;50063;52.084;5.414;2022-09-21T09:59:53;15.40;99.90
63897;DHT22;50063;52.084;5.414;2022-09-21T10:02:24;15.40;99.90
63897;DHT22;50063;52.084;5.414;2022-09-21T10:04:55;15.50;99.90
63897;DHT22;50063;52.084;5.414;2022-09-21T10:07:32;15.60;99.90
63897;DHT22;50063;52.084;5.414;2022-09-21T10:09:59;15.70;99.90
63897;DHT22;50063;52.084;5.414;2022-09-21T10:12:25;15.70;99.90
63897;DHT22;50063;52.084;5.414;2022-09-21T10:14:56;15.80;99.90
63897;DHT22;50063;52.084;5.414;2022-09-21T10:17:26;15.80;99.90
63897;DHT22;50063;52.084;5.414;2022-09-21T10:19:59;15.90;99.90
63897;DHT22;50063;52.084;5.414;2022-09-21T10:22:26;15.90;99.90
63897;DHT22;50063;52.084;5.414;2022-09-21T10:24:53;16.00;99.90
63897;DHT22;50063;52.084;5.414;2022-09-21T10:27:21;15.90;99.90
63897;DHT22;50063;52.084;5.414;2022-09-21T10:29:49;16.00;99.90
63897;DHT22;50063;52.084;5.414;2022-09-21T10:32:23;16.10;99.90
63897;DHT22;50063;52.084;5.414;2022-09-21T10:37:39;16.00;99.90
63897;DHT22;50063;52.084;5.414;2022-09-21T10:42:42;16.10;99.90
63897;DHT22;50063;52.084;5.414;2022-09-21T10:45:13;16.20;99.90
63897;DHT22;50063;52.084;5.414;2022-09-21T10:47:42;16.30;99.90
63897;DHT22;50063;52.084;5.414;2022-09-21T10:50:26;16.30;99.90
63897;DHT22;50063;52.084;5.414;2022-09-21T10:52:59;16.40;99.90
63897;DHT22;50063;52.084;5.414;2022-09-21T10:55:27;16.40;99.90
63897;DHT22;50063;52.084;5.414;2022-09-21T10:57:54;16.40;99.90
63897;DHT22;50063;52.084;5.414;2022-09-21T11:02:51;16.50;99.90
63897;DHT22;50063;52.084;5.414;2022-09-21T11:05:28;16.50;99.90
63897;DHT22;50063;52.084;5.414;2022-09-21T11:07:58;16.50;99.90
63897;DHT22;50063;52.084;5.414;2022-09-21T11:10:29;16.60;99.90
63897;DHT22;50063;52.084;5.414;2022-09-21T11:26:06;16.60;99.90
63897;DHT22;50063;52.084;5.414;2022-09-21T11:28:45;16.60;99.90
63897;DHT22;50063;52.084;5.414;2022-09-21T11:33:54;16.70;99.90
63897;DHT22;50063;52.084;5.414;2022-09-21T11:36:47;16.70;99.90
63897;DHT22;50063;52.084;5.414;2022-09-21T11:39:19;16.80;99.90
63897;DHT22;50063;52.084;5.414;2022-09-21T11:41:51;16.70;99.90
63897;DHT22;50063;52.084;5.414;2022-09-21T11:44:24;16.70;99.90
63897;DHT22;50063;52.084;5.414;2022-09-21T11:57:26;16.80;99.90
63897;DHT22;50063;52.084;5.414;2022-09-21T12:07:54;16.80;99.90
63897;DHT22;50063;52.084;5.414;2022-09-21T12:10:37;16.70;99.90
63897;DHT22;50063;52.084;5.414;2022-09-21T12:13:13;16.80;99.90
63897;DHT22;50063;52.084;5.414;2022-09-21T12:16:00;16.80;99.90
63897;DHT22;50063;52.084;5.414;2022-09-21T12:20:57;16.80;99.90
63897;DHT22;50063;52.084;5.414;2022-09-21T12:23:27;16.80;99.90
63897;DHT22;50063;52.084;5.414;2022-09-21T12:25:56;16.90;99.90
63897;DHT22;50063;52.084;5.414;2022-09-21T12:28:31;16.90;99.90
63897;DHT22;50063;52.084;5.414;2022-09-21T12:31:02;16.90;99.90
63897;DHT22;50063;52.084;5.414;2022-09-21T12:33:32;16.90;99.90
63897;DHT22;50063;52.084;5.414;2022-09-21T12:36:02;17.00;99.90
63897;DHT22;50063;52.084;5.414;2022-09-21T12:38:35;17.00;99.90
63897;DHT22;50063;52.084;5.414;2022-09-21T12:43:52;17.10;99.90
63897;DHT22;50063;52.084;5.414;2022-09-21T12:46:22;17.10;99.90
63897;DHT22;50063;52.084;5.414;2022-09-21T12:48:50;17.20;99.90
63897;DHT22;50063;52.084;5.414;2022-09-21T12:51:20;17.20;99.90
63897;DHT22;50063;52.084;5.414;2022-09-21T12:53:50;17.30;99.90
63897;DHT22;50063;52.084;5.414;2022-09-21T13:06:37;17.30;99.90
63897;DHT22;50063;52.084;5.414;2022-09-21T13:09:13;17.30;99.90
63897;DHT22;50063;52.084;5.414;2022-09-21T13:14:35;17.30;99.90
63897;DHT22;50063;52.084;5.414;2022-09-21T13:17:06;17.30;99.90
63897;DHT22;50063;52.084;5.414;2022-09-21T13:19:42;17.40;99.90
63897;DHT22;50063;52.084;5.414;2022-09-21T13:22:19;17.50;99.90
63897;DHT22;50063;52.084;5.414;2022-09-21T13:24:56;17.50;99.90
63897;DHT22;50063;52.084;5.414;2022-09-21T13:39:17;18.80;99.90
63897;DHT22;50063;52.084;5.414;2022-09-21T13:43:47;20.40;99.90
63897;DHT22;50063;52.084;5.414;2022-09-21T13:49:01;21.00;99.90
63897;DHT22;50063;52.084;5.414;2022-09-21T13:51:31;21.60;99.90
63897;DHT22;50063;52.084;5.414;2022-09-21T13:53:58;21.80;99.90
63897;DHT22;50063;52.084;5.414;2022-09-21T13:56:27;22.10;99.90
63897;DHT22;50063;52.084;5.414;2022-09-21T13:58:54;22.50;99.90
63897;DHT22;50063;52.084;5.414;2022-09-21T14:01:33;23.00;99.90
63897;DHT22;50063;52.084;5.414;2022-09-21T14:04:24;23.50;99.90
63897;DHT22;50063;52.084;5.414;2022-09-21T14:06:52;24.40;99.90
63897;DHT22;50063;52.084;5.414;2022-09-21T14:09:23;25.00;99.90
63897;DHT22;50063;52.084;5.414;2022-09-21T14:11:52;25.10;99.90
63897;DHT22;50063;52.084;5.414;2022-09-21T14:14:27;25.60;99.90
63897;DHT22;50063;52.084;5.414;2022-09-21T14:16:56;25.40;99.90
63897;DHT22;50063;52.084;5.414;2022-09-21T14:24:37;25.80;99.90
63897;DHT22;50063;52.084;5.414;2022-09-21T14:32:09;27.20;98.20
63897;DHT22;50063;52.084;5.414;2022-09-21T14:34:38;27.90;99.90
63897;DHT22;50063;52.084;5.414;2022-09-21T14:37:29;28.30;99.20
63897;DHT22;50063;52.084;5.414;2022-09-21T14:39:53;29.10;99.90
63897;DHT22;50063;52.084;5.414;2022-09-21T14:42:22;29.40;97.40
63897;DHT22;50063;52.084;5.414;2022-09-21T14:44:57;29.60;99.90
63897;DHT22;50063;52.084;5.414;2022-09-21T14:48:12;29.80;99.90
63897;DHT22;50063;52.084;5.414;2022-09-21T14:53:00;30.10;98.10
63897;DHT22;50063;52.084;5.414;2022-09-21T14:55:46;30.00;95.60
63897;DHT22;50063;52.084;5.414;2022-09-21T15:00:45;29.80;93.00
63897;DHT22;50063;52.084;5.414;2022-09-21T15:06:14;29.30;96.40
63897;DHT22;50063;52.084;5.414;2022-09-21T15:12:09;28.80;95.30
63897;DHT22;50063;52.084;5.414;2022-09-21T15:14:38;29.40;93.30
63897;DHT22;50063;52.084;5.414;2022-09-21T15:17:28;29.60;96.10
63897;DHT22;50063;52.084;5.414;2022-09-21T15:19:58;29.50;94.50
63897;DHT22;50063;52.084;5.414;2022-09-21T15:22:26;29.50;95.30
63897;DHT22;50063;52.084;5.414;2022-09-21T15:24:54;29.60;94.50
63897;DHT22;50063;52.084;5.414;2022-09-21T15:27:22;29.40;91.60
63897;DHT22;50063;52.084;5.414;2022-09-21T15:29:50;29.40;93.70
63897;DHT22;50063;52.084;5.414;2022-09-21T15:34:57;29.60;94.90
63897;DHT22;50063;52.084;5.414;2022-09-21T15:37:26;30.10;94.50
63897;DHT22;50063;52.084;5.414;2022-09-21T15:40:00;29.70;92.90
63897;DHT22;50063;52.084;5.414;2022-09-21T15:42:27;29.40;91.70
63897;DHT22;50063;52.084;5.414;2022-09-21T15:45:03;29.00;92.20
63897;DHT22;50063;52.084;5.414;2022-09-21T15:47:35;29.30;93.60
63897;DHT22;50063;52.084;5.414;2022-09-21T15:50:02;29.10;90.60
63897;DHT22;50063;52.084;5.414;2022-09-21T15:52:31;29.20;92.20
63897;DHT22;50063;52.084;5.414;2022-09-21T15:54:58;28.90;91.10
63897;DHT22;50063;52.084;5.414;2022-09-21T16:02:41;28.20;90.80
63897;DHT22;50063;52.084;5.414;2022-09-21T16:05:11;28.30;91.40
63897;DHT22;50063;52.084;5.414;2022-09-21T16:07:41;27.90;89.30
63897;DHT22;50063;52.084;5.414;2022-09-21T16:12:59;27.10;89.80
63897;DHT22;50063;52.084;5.414;2022-09-21T16:15:27;27.20;89.60
63897;DHT22;50063;52.084;5.414;2022-09-21T16:20:24;25.80;89.90
63897;DHT22;50063;52.084;5.414;2022-09-21T16:22:52;24.70;90.30
63897;DHT22;50063;52.084;5.414;2022-09-21T16:25:29;23.90;90.60
63897;DHT22;50063;52.084;5.414;2022-09-21T16:28:02;23.30;91.40
63897;DHT22;50063;52.084;5.414;2022-09-21T16:30:38;22.90;91.70
63897;DHT22;50063;52.084;5.414;2022-09-21T16:35:54;22.50;92.90
63897;DHT22;50063;52.084;5.414;2022-09-21T16:38:24;22.30;93.30
63897;DHT22;50063;52.084;5.414;2022-09-21T16:40:51;22.00;91.40
63897;DHT22;50063;52.084;5.414;2022-09-21T16:43:19;21.60;93.00
63897;DHT22;50063;52.084;5.414;2022-09-21T16:45:48;21.40;94.00
63897;DHT22;50063;52.084;5.414;2022-09-21T16:48:15;21.10;93.80
63897;DHT22;50063;52.084;5.414;2022-09-21T16:50:41;21.00;94.30
63897;DHT22;50063;52.084;5.414;2022-09-21T16:53:11;20.80;94.70
63897;DHT22;50063;52.084;5.414;2022-09-21T16:55:40;20.70;94.80
63897;DHT22;50063;52.084;5.414;2022-09-21T16:58:08;20.40;95.10
63897;DHT22;50063;52.084;5.414;2022-09-21T17:00:36;20.20;95.40
63897;DHT22;50063;52.084;5.414;2022-09-21T17:03:04;20.00;95.70
63897;DHT22;50063;52.084;5.414;2022-09-21T17:05:30;19.90;96.00
63897;DHT22;50063;52.084;5.414;2022-09-21T17:07:57;19.70;96.20
63897;DHT22;50063;52.084;5.414;2022-09-21T17:10:26;19.60;96.50
63897;DHT22;50063;52.084;5.414;2022-09-21T17:12:57;19.40;96.70
63897;DHT22;50063;52.084;5.414;2022-09-21T17:15:24;19.20;96.80
63897;DHT22;50063;52.084;5.414;2022-09-21T17:17:52;19.00;97.00
63897;DHT22;50063;52.084;5.414;2022-09-21T17:20:19;18.90;97.10
63897;DHT22;50063;52.084;5.414;2022-09-21T17:22:47;18.80;97.30
63897;DHT22;50063;52.084;5.414;2022-09-21T17:25:14;18.60;97.40
63897;DHT22;50063;52.084;5.414;2022-09-21T17:27:40;18.50;97.60
63897;DHT22;50063;52.084;5.414;2022-09-21T17:30:11;18.30;97.70
63897;DHT22;50063;52.084;5.414;2022-09-21T17:32:38;18.20;97.90
63897;DHT22;50063;52.084;5.414;2022-09-21T17:37:37;17.80;98.10
63897;DHT22;50063;52.084;5.414;2022-09-21T17:40:04;17.70;98.30
63897;DHT22;50063;52.084;5.414;2022-09-21T17:42:40;17.50;98.30
63897;DHT22;50063;52.084;5.414;2022-09-21T17:47:38;17.30;98.60
63897;DHT22;50063;52.084;5.414;2022-09-21T17:52:37;17.00;98.90
63897;DHT22;50063;52.084;5.414;2022-09-21T17:55:23;16.90;99.00
63897;DHT22;50063;52.084;5.414;2022-09-21T18:03:26;16.50;99.60
63897;DHT22;50063;52.084;5.414;2022-09-21T18:05:53;16.40;99.50
63897;DHT22;50063;52.084;5.414;2022-09-21T18:08:26;16.30;99.70
63897;DHT22;50063;52.084;5.414;2022-09-21T18:18:47;15.80;99.90
63897;DHT22;50063;52.084;5.414;2022-09-21T18:21:20;15.70;99.90
63897;DHT22;50063;52.084;5.414;2022-09-21T18:26:32;15.70;99.90
63897;DHT22;50063;52.084;5.414;2022-09-21T18:29:00;15.60;99.90
63897;DHT22;50063;52.084;5.414;2022-09-21T18:36:53;15.20;99.90
63897;DHT22;50063;52.084;5.414;2022-09-21T18:39:25;15.10;99.90
63897;DHT22;50063;52.084;5.414;2022-09-21T18:42:03;14.90;99.90
63897;DHT22;50063;52.084;5.414;2022-09-21T18:44:36;14.70;99.90
63897;DHT22;50063;52.084;5.414;2022-09-21T18:47:25;14.70;99.90
63897;DHT22;50063;52.084;5.414;2022-09-21T18:52:32;14.60;99.90
63897;DHT22;50063;52.084;5.414;2022-09-21T18:55:03;14.50;99.90
63897;DHT22;50063;52.084;5.414;2022-09-21T18:57:36;14.40;99.90
63897;DHT22;50063;52.084;5.414;2022-09-21T19:00:03;14.40;99.90
63897;DHT22;50063;52.084;5.414;2022-09-21T19:02:30;14.40;99.90
63897;DHT22;50063;52.084;5.414;2022-09-21T19:04:57;14.40;99.90
63897;DHT22;50063;52.084;5.414;2022-09-21T19:07:26;14.30;99.90
63897;DHT22;50063;52.084;5.414;2022-09-21T19:18:17;14.00;99.90
63897;DHT22;50063;52.084;5.414;2022-09-21T19:25:45;13.80;99.90
63897;DHT22;50063;52.084;5.414;2022-09-21T19:30:52;13.70;99.90
63897;DHT22;50063;52.084;5.414;2022-09-21T19:33:26;13.70;99.90
63897;DHT22;50063;52.084;5.414;2022-09-21T19:36:14;13.60;99.90
63897;DHT22;50063;52.084;5.414;2022-09-21T19:38:41;13.50;99.90
63897;DHT22;50063;52.084;5.414;2022-09-21T19:43:47;13.30;99.90
63897;DHT22;50063;52.084;5.414;2022-09-21T19:49:02;13.20;99.90
63897;DHT22;50063;52.084;5.414;2022-09-21T19:51:37;13.00;99.90
63897;DHT22;50063;52.084;5.414;2022-09-21T19:54:13;13.00;99.90
63897;DHT22;50063;52.084;5.414;2022-09-21T19:56:58;13.00;99.90
63897;DHT22;50063;52.084;5.414;2022-09-21T19:59:43;13.00;99.90